sensor_id;sensor_type;location;lat;lon;timestamp;P1;durP1;ratioP1;P2;durP2;ratioP2
54875;SDS011;40764;48.472;8.166;2022-07-30T00:05:57;9.10;;;3.15;;
54875;SDS011;40764;48.472;8.166;2022-07-30T00:11:57;7.30;;;2.65;;
54875;SDS011;40764;48.472;8.166;2022-07-30T00:17:57;6.70;;;3.23;;
54875;SDS011;40764;48.472;8.166;2022-07-30T00:23:58;6.87;;;3.27;;
54875;SDS011;40764;48.472;8.166;2022-07-30T00:29:58;8.00;;;3.37;;
54875;SDS011;40764;48.472;8.166;2022-07-30T00:35:59;8.80;;;3.77;;
54875;SDS011;40764;48.472;8.166;2022-07-30T00:42:01;3.88;;;3.28;;
54875;SDS011;40764;48.472;8.166;2022-07-30T00:48:03;11.70;;;3.25;;
54875;SDS011;40764;48.472;8.166;2022-07-30T00:54:04;4.97;;;3.20;;
54875;SDS011;40764;48.472;8.166;2022-07-30T01:00:05;6.33;;;3.77;;
54875;SDS011;40764;48.472;8.166;2022-07-30T01:06:08;8.02;;;3.53;;
54875;SDS011;40764;48.472;8.166;2022-07-30T01:12:08;4.90;;;3.50;;
54875;SDS011;40764;48.472;8.166;2022-07-30T01:18:10;8.13;;;3.90;;
54875;SDS011;40764;48.472;8.166;2022-07-30T01:24:27;7.57;;;3.58;;
54875;SDS011;40764;48.472;8.166;2022-07-30T01:30:35;7.97;;;4.10;;
54875;SDS011;40764;48.472;8.166;2022-07-30T01:36:38;8.05;;;4.05;;
54875;SDS011;40764;48.472;8.166;2022-07-30T01:42:41;9.25;;;4.60;;
54875;SDS011;40764;48.472;8.166;2022-07-30T01:48:43;12.45;;;4.43;;
54875;SDS011;40764;48.472;8.166;2022-07-30T01:54:45;10.53;;;4.30;;
54875;SDS011;40764;48.472;8.166;2022-07-30T02:00:48;6.28;;;3.60;;
54875;SDS011;40764;48.472;8.166;2022-07-30T02:07:09;11.70;;;4.43;;
54875;SDS011;40764;48.472;8.166;2022-07-30T02:13:15;7.05;;;4.22;;
54875;SDS011;40764;48.472;8.166;2022-07-30T02:19:21;6.68;;;4.47;;
54875;SDS011;40764;48.472;8.166;2022-07-30T02:25:25;7.63;;;4.50;;
54875;SDS011;40764;48.472;8.166;2022-07-30T02:31:28;11.02;;;4.63;;
54875;SDS011;40764;48.472;8.166;2022-07-30T02:37:32;11.48;;;4.78;;
54875;SDS011;40764;48.472;8.166;2022-07-30T02:43:33;11.00;;;5.87;;
54875;SDS011;40764;48.472;8.166;2022-07-30T02:49:35;10.70;;;4.97;;
54875;SDS011;40764;48.472;8.166;2022-07-30T02:55:37;8.70;;;4.47;;
54875;SDS011;40764;48.472;8.166;2022-07-30T03:01:39;9.95;;;4.57;;
54875;SDS011;40764;48.472;8.166;2022-07-30T03:13:43;11.27;;;5.60;;
54875;SDS011;40764;48.472;8.166;2022-07-30T03:19:44;13.85;;;5.50;;
54875;SDS011;40764;48.472;8.166;2022-07-30T03:26:01;9.35;;;5.60;;
54875;SDS011;40764;48.472;8.166;2022-07-30T03:32:03;7.30;;;5.28;;
54875;SDS011;40764;48.472;8.166;2022-07-30T03:44:05;8.45;;;5.85;;
54875;SDS011;40764;48.472;8.166;2022-07-30T03:50:07;8.60;;;5.22;;
54875;SDS011;40764;48.472;8.166;2022-07-30T03:56:08;13.75;;;6.00;;
54875;SDS011;40764;48.472;8.166;2022-07-30T04:02:10;12.20;;;5.80;;
54875;SDS011;40764;48.472;8.166;2022-07-30T04:08:10;7.78;;;5.50;;
54875;SDS011;40764;48.472;8.166;2022-07-30T04:14:10;9.60;;;6.37;;
54875;SDS011;40764;48.472;8.166;2022-07-30T04:20:11;14.90;;;6.50;;
54875;SDS011;40764;48.472;8.166;2022-07-30T04:26:15;10.40;;;6.45;;
54875;SDS011;40764;48.472;8.166;2022-07-30T04:32:17;10.13;;;6.00;;
54875;SDS011;40764;48.472;8.166;2022-07-30T04:38:18;10.67;;;6.60;;
54875;SDS011;40764;48.472;8.166;2022-07-30T04:44:19;14.88;;;7.47;;
54875;SDS011;40764;48.472;8.166;2022-07-30T04:50:23;15.33;;;6.63;;
54875;SDS011;40764;48.472;8.166;2022-07-30T04:56:25;19.73;;;6.28;;
54875;SDS011;40764;48.472;8.166;2022-07-30T05:02:29;8.25;;;6.40;;
54875;SDS011;40764;48.472;8.166;2022-07-30T05:08:30;10.30;;;7.03;;
54875;SDS011;40764;48.472;8.166;2022-07-30T05:14:30;8.63;;;6.43;;
54875;SDS011;40764;48.472;8.166;2022-07-30T05:20:31;10.93;;;6.90;;
54875;SDS011;40764;48.472;8.166;2022-07-30T05:26:31;12.40;;;6.63;;
54875;SDS011;40764;48.472;8.166;2022-07-30T05:32:32;13.73;;;7.43;;
54875;SDS011;40764;48.472;8.166;2022-07-30T05:38:33;14.55;;;7.25;;
54875;SDS011;40764;48.472;8.166;2022-07-30T05:44:33;10.55;;;6.57;;
54875;SDS011;40764;48.472;8.166;2022-07-30T05:50:34;12.32;;;6.65;;
54875;SDS011;40764;48.472;8.166;2022-07-30T05:56:34;15.20;;;6.23;;
54875;SDS011;40764;48.472;8.166;2022-07-30T06:02:35;10.50;;;6.22;;
54875;SDS011;40764;48.472;8.166;2022-07-30T06:08:36;10.93;;;6.97;;
54875;SDS011;40764;48.472;8.166;2022-07-30T06:14:36;13.32;;;7.43;;
54875;SDS011;40764;48.472;8.166;2022-07-30T06:20:37;9.10;;;6.13;;
54875;SDS011;40764;48.472;8.166;2022-07-30T06:26:37;7.63;;;6.30;;
54875;SDS011;40764;48.472;8.166;2022-07-30T06:32:37;11.27;;;6.47;;
54875;SDS011;40764;48.472;8.166;2022-07-30T06:38:38;10.27;;;6.00;;
54875;SDS011;40764;48.472;8.166;2022-07-30T06:44:38;14.30;;;5.93;;
54875;SDS011;40764;48.472;8.166;2022-07-30T06:50:39;32.37;;;7.80;;
54875;SDS011;40764;48.472;8.166;2022-07-30T06:56:42;19.13;;;6.72;;
54875;SDS011;40764;48.472;8.166;2022-07-30T07:02:42;14.90;;;6.10;;
54875;SDS011;40764;48.472;8.166;2022-07-30T07:08:43;8.03;;;5.60;;
54875;SDS011;40764;48.472;8.166;2022-07-30T07:14:43;17.77;;;6.22;;
54875;SDS011;40764;48.472;8.166;2022-07-30T07:20:44;14.20;;;5.83;;
54875;SDS011;40764;48.472;8.166;2022-07-30T07:26:45;10.75;;;5.30;;
54875;SDS011;40764;48.472;8.166;2022-07-30T07:32:45;12.13;;;5.32;;
54875;SDS011;40764;48.472;8.166;2022-07-30T07:38:46;11.63;;;5.18;;
54875;SDS011;40764;48.472;8.166;2022-07-30T07:44:46;6.80;;;4.93;;
54875;SDS011;40764;48.472;8.166;2022-07-30T07:50:47;11.48;;;4.72;;
54875;SDS011;40764;48.472;8.166;2022-07-30T07:56:47;8.47;;;4.80;;
54875;SDS011;40764;48.472;8.166;2022-07-30T08:02:48;7.37;;;3.87;;
54875;SDS011;40764;48.472;8.166;2022-07-30T08:08:48;8.57;;;4.40;;
54875;SDS011;40764;48.472;8.166;2022-07-30T08:14:49;6.03;;;4.00;;
54875;SDS011;40764;48.472;8.166;2022-07-30T08:20:49;6.87;;;3.87;;
54875;SDS011;40764;48.472;8.166;2022-07-30T08:26:50;14.40;;;5.00;;
54875;SDS011;40764;48.472;8.166;2022-07-30T08:32:50;5.37;;;3.73;;
54875;SDS011;40764;48.472;8.166;2022-07-30T08:38:51;10.97;;;4.33;;
54875;SDS011;40764;48.472;8.166;2022-07-30T08:44:51;5.22;;;3.20;;
54875;SDS011;40764;48.472;8.166;2022-07-30T08:50:53;6.05;;;3.28;;
54875;SDS011;40764;48.472;8.166;2022-07-30T08:56:54;9.77;;;3.33;;
54875;SDS011;40764;48.472;8.166;2022-07-30T09:02:54;7.00;;;3.07;;
54875;SDS011;40764;48.472;8.166;2022-07-30T09:27:25;7.13;;;2.53;;
54875;SDS011;40764;48.472;8.166;2022-07-30T09:33:43;8.65;;;2.95;;
54875;SDS011;40764;48.472;8.166;2022-07-30T09:39:44;8.05;;;2.63;;
54875;SDS011;40764;48.472;8.166;2022-07-30T09:45:52;6.40;;;2.30;;
54875;SDS011;40764;48.472;8.166;2022-07-30T09:51:56;5.32;;;2.55;;
54875;SDS011;40764;48.472;8.166;2022-07-30T09:58:01;5.63;;;2.30;;
54875;SDS011;40764;48.472;8.166;2022-07-30T10:04:03;4.38;;;2.13;;
54875;SDS011;40764;48.472;8.166;2022-07-30T10:10:04;7.93;;;2.27;;
54875;SDS011;40764;48.472;8.166;2022-07-30T10:16:05;11.38;;;2.17;;
54875;SDS011;40764;48.472;8.166;2022-07-30T10:22:07;7.25;;;2.67;;
54875;SDS011;40764;48.472;8.166;2022-07-30T10:28:08;7.85;;;2.55;;
54875;SDS011;40764;48.472;8.166;2022-07-30T10:34:10;8.83;;;2.90;;
54875;SDS011;40764;48.472;8.166;2022-07-30T10:52:43;5.15;;;2.25;;
54875;SDS011;40764;48.472;8.166;2022-07-30T11:05:41;6.90;;;3.10;;
54875;SDS011;40764;48.472;8.166;2022-07-30T11:17:24;5.30;;;2.25;;
54875;SDS011;40764;48.472;8.166;2022-07-30T11:29:32;8.13;;;2.13;;
54875;SDS011;40764;48.472;8.166;2022-07-30T11:35:35;7.60;;;2.30;;
54875;SDS011;40764;48.472;8.166;2022-07-30T11:41:36;8.23;;;2.30;;
54875;SDS011;40764;48.472;8.166;2022-07-30T11:47:36;8.07;;;2.15;;
54875;SDS011;40764;48.472;8.166;2022-07-30T11:53:37;4.17;;;2.27;;
54875;SDS011;40764;48.472;8.166;2022-07-30T11:59:58;10.33;;;2.60;;
54875;SDS011;40764;48.472;8.166;2022-07-30T12:06:04;7.13;;;2.07;;
54875;SDS011;40764;48.472;8.166;2022-07-30T12:12:27;7.28;;;2.47;;
54875;SDS011;40764;48.472;8.166;2022-07-30T12:18:28;6.68;;;2.30;;
54875;SDS011;40764;48.472;8.166;2022-07-30T12:24:29;5.38;;;3.15;;
54875;SDS011;40764;48.472;8.166;2022-07-30T12:30:29;6.05;;;2.65;;
54875;SDS011;40764;48.472;8.166;2022-07-30T12:36:33;4.03;;;1.87;;
54875;SDS011;40764;48.472;8.166;2022-07-30T12:42:34;7.50;;;2.17;;
54875;SDS011;40764;48.472;8.166;2022-07-30T12:48:35;7.40;;;2.40;;
54875;SDS011;40764;48.472;8.166;2022-07-30T12:54:36;12.53;;;2.37;;
54875;SDS011;40764;48.472;8.166;2022-07-30T13:06:42;2.42;;;2.00;;
54875;SDS011;40764;48.472;8.166;2022-07-30T13:12:46;5.90;;;1.93;;
54875;SDS011;40764;48.472;8.166;2022-07-30T13:18:46;4.70;;;1.88;;
54875;SDS011;40764;48.472;8.166;2022-07-30T13:24:46;4.43;;;1.83;;
54875;SDS011;40764;48.472;8.166;2022-07-30T13:30:47;9.13;;;1.88;;
54875;SDS011;40764;48.472;8.166;2022-07-30T13:36:48;5.70;;;1.92;;
54875;SDS011;40764;48.472;8.166;2022-07-30T13:48:48;5.78;;;2.03;;
54875;SDS011;40764;48.472;8.166;2022-07-30T14:06:51;3.30;;;1.58;;
54875;SDS011;40764;48.472;8.166;2022-07-30T14:12:52;10.15;;;1.60;;
54875;SDS011;40764;48.472;8.166;2022-07-30T14:18:54;3.40;;;1.67;;
54875;SDS011;40764;48.472;8.166;2022-07-30T14:24:56;11.57;;;1.55;;
54875;SDS011;40764;48.472;8.166;2022-07-30T14:30:56;2.33;;;1.40;;
54875;SDS011;40764;48.472;8.166;2022-07-30T14:36:57;3.80;;;1.60;;
54875;SDS011;40764;48.472;8.166;2022-07-30T14:42:57;3.53;;;1.55;;
54875;SDS011;40764;48.472;8.166;2022-07-30T14:48:58;6.40;;;1.40;;
54875;SDS011;40764;48.472;8.166;2022-07-30T14:54:58;6.83;;;1.60;;
54875;SDS011;40764;48.472;8.166;2022-07-30T15:07:00;3.88;;;1.60;;
54875;SDS011;40764;48.472;8.166;2022-07-30T15:13:01;4.10;;;1.42;;
54875;SDS011;40764;48.472;8.166;2022-07-30T15:19:01;12.43;;;3.50;;
54875;SDS011;40764;48.472;8.166;2022-07-30T15:25:01;7.93;;;3.42;;
54875;SDS011;40764;48.472;8.166;2022-07-30T15:31:02;11.70;;;4.10;;
54875;SDS011;40764;48.472;8.166;2022-07-30T15:37:03;11.85;;;2.10;;
54875;SDS011;40764;48.472;8.166;2022-07-30T15:49:04;5.80;;;1.55;;
54875;SDS011;40764;48.472;8.166;2022-07-30T15:55:07;3.20;;;1.40;;
54875;SDS011;40764;48.472;8.166;2022-07-30T16:01:08;5.15;;;1.50;;
54875;SDS011;40764;48.472;8.166;2022-07-30T16:13:09;2.72;;;1.10;;
54875;SDS011;40764;48.472;8.166;2022-07-30T16:19:09;4.03;;;1.52;;
54875;SDS011;40764;48.472;8.166;2022-07-30T16:25:10;6.13;;;1.43;;
54875;SDS011;40764;48.472;8.166;2022-07-30T16:37:10;5.90;;;1.80;;
54875;SDS011;40764;48.472;8.166;2022-07-30T16:43:11;7.20;;;1.53;;
54875;SDS011;40764;48.472;8.166;2022-07-30T16:55:11;5.03;;;1.40;;
54875;SDS011;40764;48.472;8.166;2022-07-30T17:01:12;3.73;;;1.57;;
54875;SDS011;40764;48.472;8.166;2022-07-30T17:07:12;6.50;;;1.60;;
54875;SDS011;40764;48.472;8.166;2022-07-30T17:13:13;6.47;;;1.60;;
54875;SDS011;40764;48.472;8.166;2022-07-30T17:19:14;2.17;;;1.27;;
54875;SDS011;40764;48.472;8.166;2022-07-30T17:25:14;5.32;;;2.55;;
54875;SDS011;40764;48.472;8.166;2022-07-30T17:31:14;11.93;;;4.90;;
54875;SDS011;40764;48.472;8.166;2022-07-30T17:37:15;16.55;;;3.38;;
54875;SDS011;40764;48.472;8.166;2022-07-30T17:43:15;5.03;;;1.70;;
54875;SDS011;40764;48.472;8.166;2022-07-30T17:49:16;4.50;;;1.58;;
54875;SDS011;40764;48.472;8.166;2022-07-30T17:55:16;2.78;;;1.25;;
54875;SDS011;40764;48.472;8.166;2022-07-30T18:01:16;5.65;;;1.23;;
54875;SDS011;40764;48.472;8.166;2022-07-30T18:07:17;6.13;;;1.30;;
54875;SDS011;40764;48.472;8.166;2022-07-30T18:13:17;7.43;;;1.40;;
54875;SDS011;40764;48.472;8.166;2022-07-30T18:19:17;13.35;;;1.67;;
54875;SDS011;40764;48.472;8.166;2022-07-30T18:31:18;4.15;;;1.10;;
54875;SDS011;40764;48.472;8.166;2022-07-30T18:43:19;6.07;;;1.63;;
54875;SDS011;40764;48.472;8.166;2022-07-30T18:49:19;6.60;;;1.30;;
54875;SDS011;40764;48.472;8.166;2022-07-30T18:55:20;3.13;;;1.27;;
54875;SDS011;40764;48.472;8.166;2022-07-30T19:01:21;4.22;;;1.40;;
54875;SDS011;40764;48.472;8.166;2022-07-30T19:07:21;16.30;;;2.33;;
54875;SDS011;40764;48.472;8.166;2022-07-30T19:13:23;4.80;;;1.42;;
54875;SDS011;40764;48.472;8.166;2022-07-30T19:19:25;5.20;;;1.95;;
54875;SDS011;40764;48.472;8.166;2022-07-30T19:25:25;4.90;;;1.60;;
54875;SDS011;40764;48.472;8.166;2022-07-30T19:31:25;13.80;;;2.50;;
54875;SDS011;40764;48.472;8.166;2022-07-30T19:37:26;13.40;;;2.33;;
54875;SDS011;40764;48.472;8.166;2022-07-30T19:43:26;21.05;;;2.20;;
54875;SDS011;40764;48.472;8.166;2022-07-30T19:49:27;7.70;;;1.87;;
54875;SDS011;40764;48.472;8.166;2022-07-30T19:55:27;6.63;;;1.85;;
54875;SDS011;40764;48.472;8.166;2022-07-30T20:01:27;6.03;;;1.93;;
54875;SDS011;40764;48.472;8.166;2022-07-30T20:07:28;4.97;;;1.73;;
54875;SDS011;40764;48.472;8.166;2022-07-30T20:13:29;3.92;;;1.80;;
54875;SDS011;40764;48.472;8.166;2022-07-30T20:19:29;6.07;;;1.45;;
54875;SDS011;40764;48.472;8.166;2022-07-30T20:25:30;11.13;;;3.08;;
54875;SDS011;40764;48.472;8.166;2022-07-30T20:31:31;3.40;;;1.80;;
54875;SDS011;40764;48.472;8.166;2022-07-30T20:37:31;3.67;;;1.67;;
54875;SDS011;40764;48.472;8.166;2022-07-30T20:43:31;4.70;;;1.83;;
54875;SDS011;40764;48.472;8.166;2022-07-30T20:49:32;2.38;;;1.58;;
54875;SDS011;40764;48.472;8.166;2022-07-30T20:55:32;5.22;;;1.90;;
54875;SDS011;40764;48.472;8.166;2022-07-30T21:01:32;9.23;;;1.48;;
54875;SDS011;40764;48.472;8.166;2022-07-30T21:07:33;4.97;;;1.85;;
54875;SDS011;40764;48.472;8.166;2022-07-30T21:13:33;3.40;;;1.80;;
54875;SDS011;40764;48.472;8.166;2022-07-30T21:19:33;2.60;;;1.80;;
54875;SDS011;40764;48.472;8.166;2022-07-30T21:25:40;5.60;;;1.63;;
54875;SDS011;40764;48.472;8.166;2022-07-30T21:31:40;6.35;;;1.55;;
54875;SDS011;40764;48.472;8.166;2022-07-30T21:37:41;4.23;;;1.60;;
54875;SDS011;40764;48.472;8.166;2022-07-30T21:43:42;3.97;;;1.70;;
54875;SDS011;40764;48.472;8.166;2022-07-30T21:49:43;5.53;;;2.10;;
54875;SDS011;40764;48.472;8.166;2022-07-30T21:55:43;2.30;;;1.80;;
54875;SDS011;40764;48.472;8.166;2022-07-30T22:01:44;6.60;;;1.93;;
54875;SDS011;40764;48.472;8.166;2022-07-30T22:07:45;6.40;;;1.40;;
54875;SDS011;40764;48.472;8.166;2022-07-30T22:13:46;4.30;;;1.90;;
54875;SDS011;40764;48.472;8.166;2022-07-30T22:25:53;3.88;;;1.35;;
54875;SDS011;40764;48.472;8.166;2022-07-30T22:31:54;1.47;;;1.30;;
54875;SDS011;40764;48.472;8.166;2022-07-30T22:37:54;5.73;;;1.70;;
54875;SDS011;40764;48.472;8.166;2022-07-30T22:43:55;3.03;;;1.80;;
54875;SDS011;40764;48.472;8.166;2022-07-30T22:49:56;4.70;;;2.03;;
54875;SDS011;40764;48.472;8.166;2022-07-30T22:55:56;7.40;;;2.00;;
54875;SDS011;40764;48.472;8.166;2022-07-30T23:01:57;3.10;;;1.77;;
54875;SDS011;40764;48.472;8.166;2022-07-30T23:08:06;3.45;;;1.73;;
54875;SDS011;40764;48.472;8.166;2022-07-30T23:14:07;5.28;;;1.90;;
54875;SDS011;40764;48.472;8.166;2022-07-30T23:26:11;3.30;;;1.70;;
54875;SDS011;40764;48.472;8.166;2022-07-30T23:32:12;1.83;;;1.70;;
54875;SDS011;40764;48.472;8.166;2022-07-30T23:38:12;2.53;;;1.77;;
54875;SDS011;40764;48.472;8.166;2022-07-30T23:44:13;4.20;;;1.80;;
54875;SDS011;40764;48.472;8.166;2022-07-30T23:50:13;4.03;;;1.90;;
54875;SDS011;40764;48.472;8.166;2022-07-30T23:56:15;4.50;;;1.77;;
